DAL179 DNPO-FNLU
Flight info
| Callsign | DAL179 |
|---|---|
| Flight time | 2h 10m |
| Altitude | 41000 |
| Route | GUNEG UQ400 BIPIV UG856 LV UR526 EXITO |
| Aircraft | A359/H-SDE2E3GHIJ3J4J5LM1ORWXY/LB1D1 |
Departure
| Time | 2026-04-20 11:38 |
|---|---|
| Airport | Port Harcourt International Airport (DNPO) |
Arrival
| Time | 2026-04-20 13:48 |
|---|---|
| Airport | Quatro de Fevereiro International Airport (FNLU) |
| Time | Latitude | Longitude | Altitude | Speed | Heading |
|---|---|---|---|---|---|
| 2026-04-20 11:15 | 5.00804 | 6.94896 | 80 ft | 0 kts | 22° |
| 2026-04-20 11:32 | 5.00805 | 6.94896 | 83 ft | 1 kts | 22° |
| 2026-04-20 11:32 | 5.00837 | 6.94909 | 83 ft | 8 kts | 17° |
| 2026-04-20 11:32 | 5.00901 | 6.94900 | 80 ft | 11 kts | 347° |
| 2026-04-20 11:33 | 5.00984 | 6.94889 | 80 ft | 13 kts | 8° |
| 2026-04-20 11:33 | 5.01074 | 6.94930 | 81 ft | 16 kts | 27° |
| 2026-04-20 11:33 | 5.01180 | 6.94986 | 83 ft | 19 kts | 28° |
| 2026-04-20 11:33 | 5.01303 | 6.95052 | 83 ft | 21 kts | 28° |
| 2026-04-20 11:34 | 5.01441 | 6.95126 | 82 ft | 23 kts | 28° |
| 2026-04-20 11:34 | 5.01590 | 6.95206 | 84 ft | 25 kts | 28° |
| 2026-04-20 11:34 | 5.01750 | 6.95291 | 84 ft | 27 kts | 28° |
| 2026-04-20 11:34 | 5.01916 | 6.95381 | 84 ft | 28 kts | 28° |
| 2026-04-20 11:35 | 5.02095 | 6.95476 | 83 ft | 30 kts | 28° |
| 2026-04-20 11:35 | 5.02283 | 6.95577 | 84 ft | 31 kts | 28° |
| 2026-04-20 11:35 | 5.02478 | 6.95682 | 85 ft | 32 kts | 28° |
| 2026-04-20 11:35 | 5.02605 | 6.95746 | 83 ft | 17 kts | 11° |
| 2026-04-20 11:36 | 5.02667 | 6.95709 | 85 ft | 11 kts | 304° |
| 2026-04-20 11:36 | 5.02705 | 6.95634 | 84 ft | 13 kts | 297° |
| 2026-04-20 11:36 | 5.02713 | 6.95584 | 84 ft | 4 kts | 238° |
| 2026-04-20 11:36 | 5.02691 | 6.95568 | 84 ft | 5 kts | 210° |
| 2026-04-20 11:37 | 5.02652 | 6.95546 | 85 ft | 10 kts | 208° |
| 2026-04-20 11:37 | 5.01714 | 6.95050 | 84 ft | 144 kts | 207° |
| 2026-04-20 11:37 | 5.00710 | 6.94512 | 488 ft | 169 kts | 209° |
| 2026-04-20 11:38 | 4.99686 | 6.93938 | 1306 ft | 168 kts | 209° |
| 2026-04-20 11:38 | 4.98663 | 6.93357 | 2010 ft | 178 kts | 209° |
| 2026-04-20 11:38 | 4.97549 | 6.92631 | 2138 ft | 204 kts | 214° |
| 2026-04-20 11:38 | 4.96317 | 6.91750 | 2335 ft | 229 kts | 216° |
| 2026-04-20 11:39 | 4.94971 | 6.90763 | 2622 ft | 249 kts | 216° |
| 2026-04-20 11:39 | 4.93540 | 6.89713 | 3073 ft | 260 kts | 215° |
| 2026-04-20 11:39 | 4.92058 | 6.88633 | 3651 ft | 266 kts | 215° |
| 2026-04-20 11:39 | 4.90542 | 6.87538 | 4228 ft | 272 kts | 214° |
| 2026-04-20 11:40 | 4.88985 | 6.86420 | 4780 ft | 278 kts | 214° |
| 2026-04-20 11:40 | 4.87399 | 6.85288 | 5375 ft | 282 kts | 213° |
| 2026-04-20 11:40 | 4.85791 | 6.84142 | 5960 ft | 285 kts | 213° |
| 2026-04-20 11:40 | 4.84164 | 6.82984 | 6532 ft | 289 kts | 214° |
| 2026-04-20 11:41 | 4.82442 | 6.81931 | 7060 ft | 291 kts | 202° |
| 2026-04-20 11:41 | 4.80542 | 6.81219 | 7593 ft | 293 kts | 194° |
| 2026-04-20 11:41 | 4.78578 | 6.80651 | 8144 ft | 295 kts | 190° |
| 2026-04-20 11:41 | 4.76574 | 6.80166 | 8723 ft | 297 kts | 188° |
| 2026-04-20 11:42 | 4.74544 | 6.79721 | 9277 ft | 300 kts | 186° |
| 2026-04-20 11:42 | 4.72487 | 6.79285 | 9822 ft | 304 kts | 186° |
| 2026-04-20 11:42 | 4.70392 | 6.78841 | 10168 ft | 314 kts | 186° |
| 2026-04-20 11:42 | 4.68206 | 6.78371 | 10401 ft | 328 kts | 186° |
| 2026-04-20 11:43 | 4.65936 | 6.77873 | 10614 ft | 341 kts | 187° |
| 2026-04-20 11:43 | 4.63584 | 6.77348 | 10827 ft | 352 kts | 187° |
| 2026-04-20 11:43 | 4.61163 | 6.76798 | 11148 ft | 359 kts | 188° |
| 2026-04-20 11:43 | 4.58717 | 6.76238 | 11557 ft | 362 kts | 188° |
| 2026-04-20 11:44 | 4.56252 | 6.75672 | 12018 ft | 364 kts | 188° |
| 2026-04-20 11:44 | 4.53814 | 6.75113 | 12469 ft | 366 kts | 188° |
| 2026-04-20 11:44 | 4.52004 | 6.74700 | 12788 ft | 368 kts | 189° |
| 2026-04-20 11:44 | 4.49499 | 6.74130 | 13221 ft | 370 kts | 189° |
| 2026-04-20 11:45 | 4.46985 | 6.73559 | 13666 ft | 372 kts | 189° |
| 2026-04-20 11:45 | 4.44455 | 6.72986 | 14054 ft | 373 kts | 189° |
| 2026-04-20 11:45 | 4.41917 | 6.72411 | 14431 ft | 375 kts | 189° |
| 2026-04-20 11:45 | 4.39361 | 6.71832 | 14804 ft | 377 kts | 189° |
| 2026-04-20 11:46 | 4.36792 | 6.71250 | 15176 ft | 379 kts | 189° |
| 2026-04-20 11:46 | 4.34210 | 6.70665 | 15551 ft | 381 kts | 189° |
| 2026-04-20 11:46 | 4.31618 | 6.70079 | 15928 ft | 383 kts | 189° |
| 2026-04-20 11:46 | 4.29013 | 6.69489 | 16293 ft | 385 kts | 189° |
| 2026-04-20 11:47 | 4.26389 | 6.68905 | 16654 ft | 387 kts | 188° |
| 2026-04-20 11:47 | 4.23721 | 6.68577 | 17011 ft | 386 kts | 179° |
| 2026-04-20 11:47 | 4.21040 | 6.68598 | 17362 ft | 386 kts | 175° |
| 2026-04-20 11:47 | 4.18351 | 6.68753 | 17712 ft | 388 kts | 173° |
| 2026-04-20 11:48 | 4.15660 | 6.68985 | 18057 ft | 390 kts | 172° |
| 2026-04-20 11:48 | 4.12948 | 6.69254 | 18313 ft | 393 kts | 172° |
| 2026-04-20 11:48 | 4.10221 | 6.69534 | 18588 ft | 395 kts | 172° |
| 2026-04-20 11:48 | 4.07479 | 6.69814 | 18872 ft | 397 kts | 172° |
| 2026-04-20 11:49 | 4.04722 | 6.70087 | 19168 ft | 399 kts | 172° |
| 2026-04-20 11:49 | 4.01945 | 6.70356 | 19452 ft | 402 kts | 172° |
| 2026-04-20 11:49 | 3.99155 | 6.70621 | 19729 ft | 404 kts | 172° |
| 2026-04-20 11:49 | 3.96353 | 6.70884 | 20004 ft | 406 kts | 173° |
| 2026-04-20 11:50 | 3.93533 | 6.71148 | 20274 ft | 408 kts | 173° |
| 2026-04-20 11:50 | 3.90700 | 6.71412 | 20546 ft | 410 kts | 173° |
| 2026-04-20 11:50 | 3.87854 | 6.71678 | 20806 ft | 412 kts | 173° |
| 2026-04-20 11:50 | 3.84991 | 6.71946 | 21082 ft | 414 kts | 173° |
| 2026-04-20 11:51 | 3.82114 | 6.72215 | 21350 ft | 416 kts | 173° |
| 2026-04-20 11:51 | 3.79224 | 6.72486 | 21617 ft | 418 kts | 173° |
| 2026-04-20 11:51 | 3.76321 | 6.72758 | 21862 ft | 420 kts | 173° |
| 2026-04-20 11:51 | 3.73402 | 6.73031 | 22121 ft | 422 kts | 173° |
| 2026-04-20 11:52 | 3.70471 | 6.73306 | 22374 ft | 424 kts | 173° |
| 2026-04-20 11:52 | 3.67522 | 6.73582 | 22616 ft | 426 kts | 173° |
| 2026-04-20 11:52 | 3.64565 | 6.73859 | 22855 ft | 428 kts | 174° |
| 2026-04-20 11:52 | 3.61591 | 6.74137 | 23109 ft | 430 kts | 174° |
| 2026-04-20 11:53 | 3.58603 | 6.74417 | 23350 ft | 432 kts | 174° |
| 2026-04-20 11:53 | 3.55607 | 6.74698 | 23553 ft | 434 kts | 174° |
| 2026-04-20 11:53 | 3.52594 | 6.74980 | 23771 ft | 435 kts | 174° |
| 2026-04-20 11:53 | 3.49573 | 6.75263 | 23995 ft | 436 kts | 174° |
| 2026-04-20 11:54 | 3.46546 | 6.75547 | 24210 ft | 437 kts | 174° |
| 2026-04-20 11:54 | 3.43510 | 6.75831 | 24415 ft | 439 kts | 174° |
| 2026-04-20 11:54 | 3.40467 | 6.76116 | 24632 ft | 440 kts | 174° |
| 2026-04-20 11:54 | 3.37413 | 6.76402 | 24844 ft | 441 kts | 174° |
| 2026-04-20 11:55 | 3.34352 | 6.76689 | 25055 ft | 443 kts | 174° |
| 2026-04-20 11:55 | 3.31283 | 6.76976 | 25281 ft | 444 kts | 174° |
| 2026-04-20 11:55 | 3.28203 | 6.77264 | 25497 ft | 445 kts | 174° |
| 2026-04-20 11:55 | 3.25116 | 6.77560 | 25710 ft | 446 kts | 173° |
| 2026-04-20 11:56 | 3.22054 | 6.78082 | 25924 ft | 447 kts | 166° |
| 2026-04-20 11:56 | 3.19120 | 6.78988 | 26135 ft | 448 kts | 158° |
| 2026-04-20 11:56 | 3.16306 | 6.80342 | 26351 ft | 450 kts | 149° |
| 2026-04-20 11:56 | 3.13737 | 6.82133 | 26563 ft | 451 kts | 140° |
| 2026-04-20 11:57 | 3.11385 | 6.84217 | 26784 ft | 453 kts | 137° |
| 2026-04-20 11:57 | 3.09106 | 6.86401 | 26997 ft | 455 kts | 136° |
| 2026-04-20 11:57 | 3.06856 | 6.88637 | 27202 ft | 457 kts | 135° |
| 2026-04-20 11:57 | 3.04609 | 6.90895 | 27421 ft | 459 kts | 135° |
| 2026-04-20 11:58 | 3.02356 | 6.93155 | 27673 ft | 460 kts | 135° |
| 2026-04-20 11:58 | 3.00089 | 6.95414 | 27917 ft | 461 kts | 135° |
| 2026-04-20 11:58 | 2.97803 | 6.97679 | 28147 ft | 463 kts | 135° |
| 2026-04-20 11:58 | 2.95507 | 6.99942 | 28404 ft | 464 kts | 136° |
| 2026-04-20 11:59 | 2.93201 | 7.02208 | 28641 ft | 466 kts | 136° |
| 2026-04-20 11:59 | 2.90881 | 7.04485 | 28868 ft | 468 kts | 136° |
| 2026-04-20 11:59 | 2.88555 | 7.06768 | 29110 ft | 470 kts | 136° |
| 2026-04-20 11:59 | 2.86215 | 7.09063 | 29338 ft | 472 kts | 136° |
| 2026-04-20 12:00 | 2.83872 | 7.11362 | 29600 ft | 473 kts | 136° |
| 2026-04-20 12:00 | 2.81518 | 7.13674 | 29838 ft | 475 kts | 136° |
| 2026-04-20 12:00 | 2.79157 | 7.15991 | 30055 ft | 477 kts | 136° |
| 2026-04-20 12:00 | 2.76789 | 7.18315 | 30287 ft | 478 kts | 136° |
| 2026-04-20 12:01 | 2.74412 | 7.20649 | 30537 ft | 479 kts | 136° |
| 2026-04-20 12:01 | 2.72031 | 7.22986 | 30791 ft | 480 kts | 136° |
| 2026-04-20 12:01 | 2.69646 | 7.25328 | 31042 ft | 481 kts | 136° |
| 2026-04-20 12:01 | 2.68062 | 7.26882 | 31208 ft | 482 kts | 136° |
| 2026-04-20 12:02 | 2.65667 | 7.29233 | 31461 ft | 483 kts | 136° |
| 2026-04-20 12:02 | 2.63261 | 7.31594 | 31687 ft | 485 kts | 136° |
| 2026-04-20 12:02 | 2.60850 | 7.33960 | 31918 ft | 487 kts | 136° |
| 2026-04-20 12:02 | 2.58430 | 7.36335 | 32157 ft | 488 kts | 136° |
| 2026-04-20 12:03 | 2.56008 | 7.38712 | 32387 ft | 489 kts | 136° |
| 2026-04-20 12:03 | 2.53574 | 7.41099 | 32588 ft | 491 kts | 136° |
| 2026-04-20 12:03 | 2.51136 | 7.43489 | 32809 ft | 492 kts | 136° |
| 2026-04-20 12:03 | 2.48676 | 7.45877 | 33017 ft | 493 kts | 136° |
| 2026-04-20 12:04 | 2.46203 | 7.48264 | 33203 ft | 495 kts | 136° |
| 2026-04-20 12:04 | 2.43756 | 7.50620 | 33427 ft | 496 kts | 136° |
| 2026-04-20 12:04 | 2.41239 | 7.53045 | 33624 ft | 497 kts | 136° |
| 2026-04-20 12:04 | 2.38748 | 7.55446 | 33815 ft | 498 kts | 136° |
| 2026-04-20 12:05 | 2.36282 | 7.57826 | 33996 ft | 500 kts | 136° |
| 2026-04-20 12:05 | 2.33780 | 7.60242 | 34144 ft | 501 kts | 136° |
| 2026-04-20 12:05 | 2.31269 | 7.62668 | 34356 ft | 502 kts | 136° |
| 2026-04-20 12:05 | 2.28763 | 7.65090 | 34612 ft | 501 kts | 136° |
| 2026-04-20 12:06 | 2.26260 | 7.67508 | 34903 ft | 499 kts | 136° |
| 2026-04-20 12:06 | 2.23757 | 7.69927 | 35049 ft | 502 kts | 136° |
| 2026-04-20 12:06 | 2.21240 | 7.72359 | 35261 ft | 503 kts | 136° |
| 2026-04-20 12:06 | 2.18730 | 7.74784 | 35544 ft | 502 kts | 136° |
| 2026-04-20 12:07 | 2.16222 | 7.77206 | 35828 ft | 501 kts | 136° |
| 2026-04-20 12:07 | 2.13716 | 7.79627 | 36119 ft | 500 kts | 136° |
| 2026-04-20 12:07 | 2.11216 | 7.82042 | 36405 ft | 499 kts | 136° |
| 2026-04-20 12:07 | 2.08720 | 7.84452 | 36692 ft | 499 kts | 136° |
| 2026-04-20 12:08 | 2.06226 | 7.86861 | 36964 ft | 498 kts | 136° |
| 2026-04-20 12:08 | 2.03737 | 7.89264 | 37245 ft | 497 kts | 136° |
| 2026-04-20 12:08 | 2.01252 | 7.91665 | 37552 ft | 496 kts | 136° |
| 2026-04-20 12:08 | 1.98771 | 7.94061 | 37837 ft | 496 kts | 136° |
| 2026-04-20 12:09 | 1.96293 | 7.96453 | 38114 ft | 495 kts | 136° |
| 2026-04-20 12:09 | 1.93818 | 7.98843 | 38408 ft | 494 kts | 136° |
| 2026-04-20 12:09 | 1.91346 | 8.01230 | 38676 ft | 493 kts | 136° |
| 2026-04-20 12:09 | 1.88916 | 8.03581 | 38937 ft | 491 kts | 136° |
| 2026-04-20 12:10 | 1.86469 | 8.05956 | 39213 ft | 489 kts | 136° |
| 2026-04-20 12:10 | 1.84033 | 8.08320 | 39496 ft | 487 kts | 136° |
| 2026-04-20 12:10 | 1.81603 | 8.10681 | 39704 ft | 487 kts | 136° |
| 2026-04-20 12:10 | 1.79172 | 8.13040 | 39908 ft | 486 kts | 136° |
| 2026-04-20 12:11 | 1.76745 | 8.15396 | 40119 ft | 486 kts | 136° |
| 2026-04-20 12:11 | 1.74323 | 8.17746 | 40307 ft | 485 kts | 136° |
| 2026-04-20 12:11 | 1.71901 | 8.20095 | 40523 ft | 485 kts | 136° |
| 2026-04-20 12:11 | 1.69483 | 8.22440 | 40714 ft | 484 kts | 136° |
| 2026-04-20 12:12 | 1.64642 | 8.27134 | 40813 ft | 485 kts | 137° |
| 2026-04-20 12:12 | 1.59804 | 8.31825 | 40810 ft | 485 kts | 137° |
| 2026-04-20 12:13 | 1.54965 | 8.36517 | 40813 ft | 484 kts | 137° |
| 2026-04-20 12:13 | 1.50135 | 8.41201 | 40809 ft | 484 kts | 137° |
| 2026-04-20 12:14 | 1.45304 | 8.45885 | 40809 ft | 484 kts | 137° |
| 2026-04-20 12:14 | 1.40470 | 8.50571 | 40810 ft | 484 kts | 137° |
| 2026-04-20 12:15 | 1.35633 | 8.55261 | 40803 ft | 484 kts | 137° |
| 2026-04-20 12:15 | 1.30799 | 8.59947 | 40801 ft | 484 kts | 137° |
| 2026-04-20 12:16 | 1.25963 | 8.64633 | 40807 ft | 484 kts | 137° |
| 2026-04-20 12:16 | 1.21130 | 8.69318 | 40807 ft | 484 kts | 137° |
| 2026-04-20 12:17 | 1.16327 | 8.73978 | 40802 ft | 484 kts | 137° |
| 2026-04-20 12:17 | 1.11490 | 8.78664 | 40803 ft | 484 kts | 137° |
| 2026-04-20 12:18 | 1.06649 | 8.83353 | 40804 ft | 485 kts | 137° |
| 2026-04-20 12:18 | 1.01802 | 8.88048 | 40804 ft | 485 kts | 137° |
| 2026-04-20 12:19 | 0.96956 | 8.92744 | 40804 ft | 485 kts | 137° |
| 2026-04-20 12:19 | 0.92112 | 8.97438 | 40801 ft | 485 kts | 137° |
| 2026-04-20 12:20 | 0.87265 | 9.02135 | 40782 ft | 486 kts | 137° |
| 2026-04-20 12:20 | 0.84839 | 9.04486 | 40548 ft | 485 kts | 137° |
| 2026-04-20 12:20 | 0.82415 | 9.06834 | 40533 ft | 486 kts | 137° |
| 2026-04-20 12:21 | 0.79984 | 9.09189 | 40704 ft | 486 kts | 137° |
| 2026-04-20 12:21 | 0.77558 | 9.11540 | 40790 ft | 486 kts | 137° |
| 2026-04-20 12:21 | 0.72708 | 9.16238 | 40796 ft | 485 kts | 137° |
| 2026-04-20 12:22 | 0.67862 | 9.20934 | 40798 ft | 485 kts | 137° |
| 2026-04-20 12:22 | 0.63016 | 9.25628 | 40795 ft | 485 kts | 137° |
| 2026-04-20 12:23 | 0.58170 | 9.30323 | 40796 ft | 485 kts | 137° |
| 2026-04-20 12:23 | 0.53288 | 9.34979 | 40799 ft | 485 kts | 137° |
| 2026-04-20 12:24 | 0.48228 | 9.39420 | 40831 ft | 483 kts | 147° |
| 2026-04-20 12:24 | 0.42314 | 9.42537 | 40829 ft | 481 kts | 157° |
| 2026-04-20 12:25 | 0.36139 | 9.45126 | 40822 ft | 481 kts | 159° |
| 2026-04-20 12:25 | 0.29926 | 9.47624 | 40819 ft | 482 kts | 159° |
| 2026-04-20 12:26 | 0.23750 | 9.50122 | 40810 ft | 482 kts | 159° |
| 2026-04-20 12:26 | 0.17500 | 9.52673 | 40796 ft | 482 kts | 159° |
| 2026-04-20 12:27 | 0.11535 | 9.55116 | 40796 ft | 482 kts | 159° |
| 2026-04-20 12:27 | 0.05327 | 9.57660 | 40794 ft | 482 kts | 159° |
| 2026-04-20 12:28 | -0.00879 | 9.60202 | 40793 ft | 482 kts | 159° |
| 2026-04-20 12:28 | -0.07044 | 9.62726 | 40790 ft | 482 kts | 159° |
| 2026-04-20 12:29 | -0.13244 | 9.65265 | 40798 ft | 482 kts | 159° |
| 2026-04-20 12:29 | -0.19448 | 9.67805 | 40793 ft | 482 kts | 159° |
| 2026-04-20 12:30 | -0.25650 | 9.70345 | 40792 ft | 481 kts | 159° |
| 2026-04-20 12:30 | -0.31848 | 9.72883 | 40791 ft | 481 kts | 159° |
| 2026-04-20 12:31 | -0.38048 | 9.75421 | 40791 ft | 481 kts | 159° |
| 2026-04-20 12:31 | -0.44255 | 9.77963 | 40787 ft | 482 kts | 159° |
| 2026-04-20 12:32 | -0.50453 | 9.80501 | 40788 ft | 482 kts | 159° |
| 2026-04-20 12:32 | -0.56655 | 9.83041 | 40787 ft | 481 kts | 159° |
| 2026-04-20 12:33 | -0.62853 | 9.85579 | 40783 ft | 481 kts | 159° |
| 2026-04-20 12:33 | -0.69042 | 9.88119 | 40789 ft | 481 kts | 159° |
| 2026-04-20 12:34 | -0.75234 | 9.90654 | 40788 ft | 481 kts | 159° |
| 2026-04-20 12:34 | -0.81424 | 9.93188 | 40787 ft | 480 kts | 159° |
| 2026-04-20 12:35 | -0.87607 | 9.95720 | 40791 ft | 480 kts | 159° |
| 2026-04-20 12:35 | -0.93784 | 9.98251 | 40792 ft | 480 kts | 159° |
| 2026-04-20 12:36 | -0.99925 | 10.00767 | 40790 ft | 480 kts | 159° |
| 2026-04-20 12:36 | -1.06107 | 10.03300 | 40788 ft | 480 kts | 159° |
| 2026-04-20 12:37 | -1.12285 | 10.05832 | 40788 ft | 480 kts | 159° |
| 2026-04-20 12:37 | -1.18474 | 10.08367 | 40785 ft | 480 kts | 159° |
| 2026-04-20 12:38 | -1.24654 | 10.10900 | 40790 ft | 480 kts | 159° |
| 2026-04-20 12:38 | -1.30840 | 10.13435 | 40788 ft | 480 kts | 159° |
| 2026-04-20 12:39 | -1.40116 | 10.17237 | 40792 ft | 480 kts | 159° |
| 2026-04-20 12:40 | -1.46300 | 10.19772 | 40791 ft | 480 kts | 159° |
| 2026-04-20 12:40 | -1.52480 | 10.22304 | 40790 ft | 479 kts | 159° |
| 2026-04-20 12:41 | -1.58634 | 10.24827 | 40789 ft | 477 kts | 159° |
| 2026-04-20 12:41 | -1.64772 | 10.27343 | 40791 ft | 477 kts | 159° |
| 2026-04-20 12:42 | -1.70912 | 10.29861 | 40790 ft | 477 kts | 159° |
| 2026-04-20 12:42 | -1.77055 | 10.32380 | 40794 ft | 477 kts | 159° |
| 2026-04-20 12:43 | -1.83193 | 10.34896 | 40798 ft | 477 kts | 159° |
| 2026-04-20 12:43 | -1.89339 | 10.37415 | 40801 ft | 477 kts | 158° |
| 2026-04-20 12:44 | -1.95477 | 10.39927 | 40801 ft | 477 kts | 158° |
| 2026-04-20 12:44 | -2.01613 | 10.42439 | 40802 ft | 476 kts | 158° |
| 2026-04-20 12:45 | -2.07697 | 10.44933 | 40805 ft | 475 kts | 158° |
| 2026-04-20 12:45 | -2.13807 | 10.47440 | 40809 ft | 475 kts | 158° |
| 2026-04-20 12:46 | -2.19968 | 10.49967 | 40814 ft | 476 kts | 158° |
| 2026-04-20 12:46 | -2.26100 | 10.52481 | 40809 ft | 477 kts | 158° |
| 2026-04-20 12:47 | -2.32203 | 10.54986 | 40813 ft | 478 kts | 157° |
| 2026-04-20 12:47 | -2.38397 | 10.57527 | 40817 ft | 478 kts | 158° |
| 2026-04-20 12:48 | -2.44508 | 10.60036 | 40817 ft | 479 kts | 158° |
| 2026-04-20 12:48 | -2.50675 | 10.62566 | 40816 ft | 479 kts | 158° |
| 2026-04-20 12:49 | -2.56856 | 10.65104 | 40814 ft | 480 kts | 158° |
| 2026-04-20 12:49 | -2.63031 | 10.67639 | 40817 ft | 480 kts | 158° |
| 2026-04-20 12:50 | -2.69210 | 10.70176 | 40814 ft | 481 kts | 158° |
| 2026-04-20 12:50 | -2.75410 | 10.72723 | 40814 ft | 482 kts | 158° |
| 2026-04-20 12:51 | -2.80570 | 10.74842 | 40812 ft | 482 kts | 158° |
| 2026-04-20 12:51 | -2.86819 | 10.77408 | 40818 ft | 483 kts | 158° |
| 2026-04-20 12:52 | -2.92986 | 10.79941 | 40813 ft | 482 kts | 158° |
| 2026-04-20 12:52 | -2.99190 | 10.82490 | 40816 ft | 482 kts | 158° |
| 2026-04-20 12:53 | -3.05391 | 10.85038 | 40817 ft | 482 kts | 158° |
| 2026-04-20 12:53 | -3.11587 | 10.87586 | 40821 ft | 482 kts | 158° |
| 2026-04-20 12:54 | -3.17791 | 10.90137 | 40824 ft | 482 kts | 158° |
| 2026-04-20 12:54 | -3.23991 | 10.92683 | 40827 ft | 481 kts | 158° |
| 2026-04-20 12:55 | -3.30183 | 10.95227 | 40821 ft | 480 kts | 158° |
| 2026-04-20 12:55 | -3.36375 | 10.97772 | 40823 ft | 481 kts | 158° |
| 2026-04-20 12:56 | -3.42578 | 11.00322 | 40820 ft | 483 kts | 158° |
| 2026-04-20 12:56 | -3.48793 | 11.02877 | 40816 ft | 482 kts | 158° |
| 2026-04-20 12:57 | -3.55004 | 11.05432 | 40820 ft | 482 kts | 158° |
| 2026-04-20 12:57 | -3.61206 | 11.07983 | 40814 ft | 482 kts | 158° |
| 2026-04-20 12:58 | -3.67414 | 11.10537 | 40815 ft | 482 kts | 158° |
| 2026-04-20 12:58 | -3.73625 | 11.13092 | 40817 ft | 483 kts | 158° |
| 2026-04-20 12:59 | -3.79845 | 11.15651 | 40810 ft | 484 kts | 157° |
| 2026-04-20 12:59 | -3.86073 | 11.18214 | 40814 ft | 484 kts | 157° |
| 2026-04-20 13:00 | -3.92303 | 11.20779 | 40815 ft | 484 kts | 157° |
| 2026-04-20 13:00 | -3.98532 | 11.23345 | 40811 ft | 484 kts | 157° |
| 2026-04-20 13:01 | -4.04767 | 11.25914 | 40821 ft | 484 kts | 157° |
| 2026-04-20 13:01 | -4.10999 | 11.28478 | 40809 ft | 484 kts | 157° |
| 2026-04-20 13:02 | -4.17231 | 11.31043 | 40810 ft | 484 kts | 157° |
| 2026-04-20 13:02 | -4.23430 | 11.33597 | 40814 ft | 486 kts | 157° |
| 2026-04-20 13:03 | -4.29687 | 11.36175 | 40812 ft | 486 kts | 157° |
| 2026-04-20 13:03 | -4.35944 | 11.38754 | 40816 ft | 486 kts | 157° |
| 2026-04-20 13:04 | -4.42204 | 11.41334 | 40813 ft | 486 kts | 157° |
| 2026-04-20 13:04 | -4.48464 | 11.43914 | 40827 ft | 486 kts | 157° |
| 2026-04-20 13:05 | -4.54742 | 11.46503 | 40818 ft | 490 kts | 158° |
| 2026-04-20 13:05 | -4.61060 | 11.49108 | 40821 ft | 491 kts | 158° |
| 2026-04-20 13:06 | -4.67388 | 11.51718 | 40819 ft | 492 kts | 158° |
| 2026-04-20 13:06 | -4.73720 | 11.54330 | 40821 ft | 493 kts | 158° |
| 2026-04-20 13:07 | -4.80062 | 11.56947 | 40822 ft | 492 kts | 158° |
| 2026-04-20 13:07 | -4.86389 | 11.59559 | 40824 ft | 492 kts | 158° |
| 2026-04-20 13:08 | -4.92735 | 11.62178 | 40815 ft | 494 kts | 158° |
| 2026-04-20 13:08 | -4.99095 | 11.64804 | 40822 ft | 495 kts | 158° |
| 2026-04-20 13:09 | -5.05468 | 11.67436 | 40821 ft | 495 kts | 158° |
| 2026-04-20 13:09 | -5.11838 | 11.70067 | 40811 ft | 494 kts | 157° |
| 2026-04-20 13:10 | -5.18184 | 11.72685 | 40820 ft | 493 kts | 157° |
| 2026-04-20 13:10 | -5.24490 | 11.75282 | 40814 ft | 494 kts | 158° |
| 2026-04-20 13:11 | -5.30855 | 11.77904 | 40818 ft | 496 kts | 158° |
| 2026-04-20 13:11 | -5.37239 | 11.80535 | 40806 ft | 496 kts | 158° |
| 2026-04-20 13:12 | -5.43621 | 11.83166 | 40812 ft | 495 kts | 158° |
| 2026-04-20 13:12 | -5.49989 | 11.85792 | 40811 ft | 495 kts | 158° |
| 2026-04-20 13:13 | -5.56366 | 11.88423 | 40810 ft | 496 kts | 158° |
| 2026-04-20 13:13 | -5.62757 | 11.91060 | 40813 ft | 496 kts | 158° |
| 2026-04-20 13:14 | -5.69123 | 11.93687 | 40805 ft | 494 kts | 158° |
| 2026-04-20 13:14 | -5.75476 | 11.96310 | 40804 ft | 493 kts | 158° |
| 2026-04-20 13:15 | -5.81828 | 11.98932 | 40805 ft | 494 kts | 158° |
| 2026-04-20 13:15 | -5.88189 | 12.01559 | 40805 ft | 495 kts | 159° |
| 2026-04-20 13:16 | -5.94553 | 12.04188 | 40796 ft | 494 kts | 158° |
| 2026-04-20 13:16 | -6.00914 | 12.06816 | 40800 ft | 494 kts | 158° |
| 2026-04-20 13:17 | -6.07273 | 12.09445 | 40801 ft | 495 kts | 158° |
| 2026-04-20 13:17 | -6.13640 | 12.12077 | 40801 ft | 495 kts | 159° |
| 2026-04-20 13:18 | -6.19981 | 12.14699 | 40801 ft | 496 kts | 158° |
| 2026-04-20 13:18 | -6.23167 | 12.16017 | 40803 ft | 495 kts | 158° |
| 2026-04-20 13:19 | -6.32710 | 12.19965 | 40802 ft | 494 kts | 159° |
| 2026-04-20 13:19 | -6.39058 | 12.22592 | 40802 ft | 493 kts | 159° |
| 2026-04-20 13:20 | -6.45408 | 12.25220 | 40804 ft | 494 kts | 159° |
| 2026-04-20 13:20 | -6.50728 | 12.27422 | 40799 ft | 493 kts | 159° |
| 2026-04-20 13:21 | -6.58094 | 12.30473 | 40803 ft | 492 kts | 158° |
| 2026-04-20 13:21 | -6.59161 | 12.30915 | 40798 ft | 492 kts | 158° |
| 2026-04-20 13:22 | -6.71029 | 12.35833 | 40797 ft | 494 kts | 159° |
| 2026-04-20 13:22 | -6.77391 | 12.38470 | 40666 ft | 494 kts | 159° |
| 2026-04-20 13:22 | -6.80567 | 12.39787 | 40424 ft | 494 kts | 158° |
| 2026-04-20 13:23 | -6.83751 | 12.41107 | 40181 ft | 495 kts | 158° |
| 2026-04-20 13:23 | -6.86934 | 12.42427 | 39937 ft | 496 kts | 158° |
| 2026-04-20 13:23 | -6.90133 | 12.43755 | 39700 ft | 498 kts | 159° |
| 2026-04-20 13:23 | -6.93338 | 12.45084 | 39464 ft | 499 kts | 158° |
| 2026-04-20 13:24 | -6.96552 | 12.46418 | 39221 ft | 500 kts | 158° |
| 2026-04-20 13:24 | -6.99684 | 12.47949 | 39001 ft | 502 kts | 151° |
| 2026-04-20 13:24 | -7.02718 | 12.49710 | 38772 ft | 504 kts | 150° |
| 2026-04-20 13:24 | -7.05746 | 12.51506 | 38543 ft | 504 kts | 150° |
| 2026-04-20 13:25 | -7.08750 | 12.53299 | 38060 ft | 500 kts | 150° |
| 2026-04-20 13:25 | -7.11735 | 12.55086 | 37396 ft | 499 kts | 150° |
| 2026-04-20 13:25 | -7.14718 | 12.56873 | 36706 ft | 498 kts | 149° |
| 2026-04-20 13:25 | -7.17698 | 12.58659 | 36009 ft | 498 kts | 149° |
| 2026-04-20 13:26 | -7.20676 | 12.60446 | 35280 ft | 499 kts | 149° |
| 2026-04-20 13:26 | -7.22652 | 12.61632 | 34779 ft | 500 kts | 149° |
| 2026-04-20 13:26 | -7.25647 | 12.63430 | 33946 ft | 503 kts | 148° |
| 2026-04-20 13:26 | -7.28664 | 12.65241 | 33003 ft | 506 kts | 148° |
| 2026-04-20 13:27 | -7.31695 | 12.67062 | 32096 ft | 508 kts | 148° |
| 2026-04-20 13:27 | -7.34725 | 12.68881 | 31365 ft | 505 kts | 148° |
| 2026-04-20 13:27 | -7.37732 | 12.70687 | 30723 ft | 501 kts | 148° |
| 2026-04-20 13:27 | -7.40707 | 12.72475 | 30084 ft | 496 kts | 148° |
| 2026-04-20 13:28 | -7.43659 | 12.74248 | 29372 ft | 492 kts | 148° |
| 2026-04-20 13:28 | -7.46584 | 12.76006 | 28698 ft | 486 kts | 148° |
| 2026-04-20 13:28 | -7.49472 | 12.77742 | 28050 ft | 481 kts | 148° |
| 2026-04-20 13:28 | -7.52330 | 12.79461 | 27417 ft | 476 kts | 148° |
| 2026-04-20 13:29 | -7.55155 | 12.81159 | 26797 ft | 471 kts | 148° |
| 2026-04-20 13:29 | -7.57955 | 12.82843 | 26180 ft | 466 kts | 148° |
| 2026-04-20 13:29 | -7.60725 | 12.84509 | 25552 ft | 461 kts | 148° |
| 2026-04-20 13:29 | -7.63467 | 12.86159 | 24941 ft | 457 kts | 148° |
| 2026-04-20 13:30 | -7.66185 | 12.87795 | 24329 ft | 454 kts | 148° |
| 2026-04-20 13:30 | -7.68851 | 12.89399 | 23703 ft | 450 kts | 148° |
| 2026-04-20 13:30 | -7.71529 | 12.91011 | 23037 ft | 447 kts | 148° |
| 2026-04-20 13:30 | -7.74189 | 12.92612 | 22370 ft | 443 kts | 148° |
| 2026-04-20 13:31 | -7.76815 | 12.94193 | 21736 ft | 437 kts | 148° |
| 2026-04-20 13:31 | -7.79412 | 12.95756 | 21107 ft | 433 kts | 148° |
| 2026-04-20 13:31 | -7.81983 | 12.97304 | 20483 ft | 428 kts | 148° |
| 2026-04-20 13:31 | -7.84531 | 12.98838 | 19858 ft | 424 kts | 147° |
| 2026-04-20 13:32 | -7.87054 | 13.00358 | 19226 ft | 421 kts | 148° |
| 2026-04-20 13:32 | -7.89563 | 13.01871 | 18592 ft | 418 kts | 148° |
| 2026-04-20 13:32 | -7.92055 | 13.03373 | 17939 ft | 416 kts | 148° |
| 2026-04-20 13:32 | -7.94531 | 13.04865 | 17243 ft | 413 kts | 147° |
| 2026-04-20 13:33 | -7.96987 | 13.06344 | 16602 ft | 409 kts | 147° |
| 2026-04-20 13:33 | -7.99412 | 13.07806 | 15979 ft | 404 kts | 147° |
| 2026-04-20 13:33 | -8.01815 | 13.09255 | 15346 ft | 400 kts | 147° |
| 2026-04-20 13:33 | -8.04193 | 13.10689 | 14733 ft | 396 kts | 147° |
| 2026-04-20 13:34 | -8.06548 | 13.12109 | 14116 ft | 393 kts | 147° |
| 2026-04-20 13:34 | -8.08881 | 13.13516 | 13482 ft | 389 kts | 147° |
| 2026-04-20 13:34 | -8.11195 | 13.14912 | 12828 ft | 385 kts | 147° |
| 2026-04-20 13:34 | -8.13475 | 13.16288 | 12191 ft | 379 kts | 147° |
| 2026-04-20 13:35 | -8.15726 | 13.17646 | 11614 ft | 374 kts | 147° |
| 2026-04-20 13:35 | -8.17931 | 13.18976 | 11169 ft | 365 kts | 148° |
| 2026-04-20 13:35 | -8.20069 | 13.20266 | 10940 ft | 350 kts | 148° |
| 2026-04-20 13:35 | -8.22107 | 13.21493 | 10810 ft | 333 kts | 147° |
| 2026-04-20 13:36 | -8.24047 | 13.22663 | 10683 ft | 317 kts | 147° |
| 2026-04-20 13:36 | -8.25892 | 13.23776 | 10563 ft | 302 kts | 147° |
| 2026-04-20 13:36 | -8.27655 | 13.24841 | 10438 ft | 288 kts | 147° |
| 2026-04-20 13:36 | -8.29343 | 13.25861 | 10241 ft | 279 kts | 147° |
| 2026-04-20 13:37 | -8.30997 | 13.26862 | 9921 ft | 275 kts | 147° |
| 2026-04-20 13:37 | -8.32671 | 13.27877 | 9633 ft | 286 kts | 147° |
| 2026-04-20 13:37 | -8.34388 | 13.28916 | 9308 ft | 289 kts | 148° |
| 2026-04-20 13:37 | -8.36109 | 13.29956 | 8906 ft | 287 kts | 148° |
| 2026-04-20 13:38 | -8.37797 | 13.30975 | 8558 ft | 285 kts | 148° |
| 2026-04-20 13:38 | -8.39487 | 13.31996 | 8317 ft | 278 kts | 147° |
| 2026-04-20 13:38 | -8.41111 | 13.32976 | 8167 ft | 266 kts | 147° |
| 2026-04-20 13:38 | -8.42660 | 13.33911 | 8050 ft | 253 kts | 147° |
| 2026-04-20 13:39 | -8.44137 | 13.34803 | 7922 ft | 242 kts | 147° |
| 2026-04-20 13:39 | -8.45551 | 13.35658 | 7780 ft | 232 kts | 147° |
| 2026-04-20 13:39 | -8.46941 | 13.36467 | 7569 ft | 230 kts | 150° |
| 2026-04-20 13:39 | -8.48436 | 13.37059 | 7251 ft | 232 kts | 163° |
| 2026-04-20 13:40 | -8.50026 | 13.37307 | 6981 ft | 231 kts | 173° |
| 2026-04-20 13:40 | -8.51630 | 13.37402 | 6723 ft | 231 kts | 175° |
| 2026-04-20 13:40 | -8.53230 | 13.37475 | 6455 ft | 230 kts | 174° |
| 2026-04-20 13:40 | -8.54821 | 13.37552 | 6214 ft | 228 kts | 174° |
| 2026-04-20 13:41 | -8.56407 | 13.37631 | 5952 ft | 228 kts | 174° |
| 2026-04-20 13:41 | -8.57985 | 13.37711 | 5703 ft | 227 kts | 174° |
| 2026-04-20 13:41 | -8.59554 | 13.37791 | 5448 ft | 225 kts | 173° |
| 2026-04-20 13:41 | -8.61116 | 13.37873 | 5210 ft | 223 kts | 173° |
| 2026-04-20 13:42 | -8.62658 | 13.37954 | 4978 ft | 221 kts | 174° |
| 2026-04-20 13:42 | -8.65724 | 13.38116 | 4476 ft | 220 kts | 174° |
| 2026-04-20 13:42 | -8.67243 | 13.38196 | 4234 ft | 218 kts | 174° |
| 2026-04-20 13:43 | -8.68749 | 13.38276 | 3996 ft | 216 kts | 175° |
| 2026-04-20 13:43 | -8.70232 | 13.38284 | 3872 ft | 209 kts | 185° |
| 2026-04-20 13:43 | -8.71574 | 13.37854 | 3808 ft | 199 kts | 203° |
| 2026-04-20 13:43 | -8.72763 | 13.37172 | 3672 ft | 194 kts | 209° |
| 2026-04-20 13:44 | -8.73776 | 13.36308 | 3470 ft | 189 kts | 223° |
| 2026-04-20 13:44 | -8.74669 | 13.35349 | 3232 ft | 186 kts | 221° |
| 2026-04-20 13:44 | -8.75554 | 13.34411 | 2965 ft | 183 kts | 223° |
| 2026-04-20 13:44 | -8.76418 | 13.33484 | 2708 ft | 179 kts | 223° |
| 2026-04-20 13:45 | -8.77266 | 13.32573 | 2470 ft | 177 kts | 222° |
| 2026-04-20 13:45 | -8.78102 | 13.31674 | 2259 ft | 174 kts | 223° |
| 2026-04-20 13:45 | -8.78922 | 13.30794 | 2039 ft | 169 kts | 223° |
| 2026-04-20 13:45 | -8.79707 | 13.29950 | 1798 ft | 160 kts | 225° |
| 2026-04-20 13:46 | -8.80441 | 13.29159 | 1626 ft | 149 kts | 225° |
| 2026-04-20 13:46 | -8.81131 | 13.28418 | 1435 ft | 141 kts | 226° |
| 2026-04-20 13:46 | -8.81785 | 13.27712 | 1246 ft | 135 kts | 226° |
| 2026-04-20 13:46 | -8.82407 | 13.27041 | 1090 ft | 128 kts | 227° |
| 2026-04-20 13:47 | -8.83011 | 13.26387 | 952 ft | 128 kts | 228° |
| 2026-04-20 13:47 | -8.83618 | 13.25722 | 761 ft | 129 kts | 227° |
| 2026-04-20 13:47 | -8.84236 | 13.25058 | 629 ft | 134 kts | 226° |
| 2026-04-20 13:47 | -8.84873 | 13.24368 | 407 ft | 134 kts | 225° |
| 2026-04-20 13:48 | -8.85503 | 13.23698 | 285 ft | 131 kts | 220° |
| 2026-04-20 13:48 | -8.86113 | 13.23096 | 253 ft | 103 kts | 223° |
| 2026-04-20 13:48 | -8.86375 | 13.22745 | 251 ft | 23 kts | 221° |
| 2026-04-20 13:48 | -8.86379 | 13.22716 | 251 ft | 4 kts | 303° |
| 2026-04-20 13:49 | -8.86318 | 13.22680 | 251 ft | 17 kts | 346° |
| 2026-04-20 13:49 | -8.86210 | 13.22718 | 253 ft | 17 kts | 40° |
| 2026-04-20 13:49 | -8.86119 | 13.22809 | 253 ft | 20 kts | 45° |
| 2026-04-20 13:49 | -8.86016 | 13.22917 | 254 ft | 22 kts | 46° |
| 2026-04-20 13:50 | -8.85899 | 13.23030 | 255 ft | 24 kts | 33° |
| 2026-04-20 13:50 | -8.85727 | 13.23059 | 256 ft | 27 kts | 1° |
| 2026-04-20 13:50 | -8.85531 | 13.23065 | 256 ft | 29 kts | 2° |
| 2026-04-20 13:50 | -8.85319 | 13.23069 | 257 ft | 31 kts | 2° |
| 2026-04-20 13:51 | -8.85157 | 13.23076 | 255 ft | 9 kts | 6° |
| 2026-04-20 13:51 | -8.85097 | 13.23119 | 255 ft | 13 kts | 56° |
| 2026-04-20 13:51 | -8.85048 | 13.23218 | 254 ft | 18 kts | 58° |
| 2026-04-20 13:51 | -8.84985 | 13.23343 | 253 ft | 22 kts | 69° |
| 2026-04-20 13:52 | -8.84936 | 13.23488 | 252 ft | 23 kts | 78° |
| 2026-04-20 13:52 | -8.84884 | 13.23619 | 251 ft | 12 kts | 65° |
| 2026-04-20 13:52 | -8.84888 | 13.23668 | 251 ft | 7 kts | 122° |
| 2026-04-20 13:52 | -8.84925 | 13.23720 | 250 ft | 9 kts | 128° |
| 2026-04-20 13:53 | -8.84927 | 13.23723 | 250 ft | 0 kts | 128° |